sensor_id;sensor_type;location;lat;lon;timestamp;P1;durP1;ratioP1;P2;durP2;ratioP2
18188;SDS011;9219;50.396;8.546;2022-12-07T00:06:43;383.07;;;60.80;;
18188;SDS011;9219;50.396;8.546;2022-12-07T00:09:12;162.57;;;38.80;;
18188;SDS011;9219;50.396;8.546;2022-12-07T00:11:41;174.30;;;42.73;;
18188;SDS011;9219;50.396;8.546;2022-12-07T00:14:10;192.27;;;40.67;;
18188;SDS011;9219;50.396;8.546;2022-12-07T00:16:39;197.43;;;43.87;;
18188;SDS011;9219;50.396;8.546;2022-12-07T00:19:09;178.97;;;40.83;;
18188;SDS011;9219;50.396;8.546;2022-12-07T00:21:37;184.00;;;43.47;;
18188;SDS011;9219;50.396;8.546;2022-12-07T00:27:01;128.60;;;34.43;;
18188;SDS011;9219;50.396;8.546;2022-12-07T00:29:29;141.53;;;36.37;;
18188;SDS011;9219;50.396;8.546;2022-12-07T00:31:56;136.40;;;35.27;;
18188;SDS011;9219;50.396;8.546;2022-12-07T00:34:24;126.20;;;36.10;;
18188;SDS011;9219;50.396;8.546;2022-12-07T00:36:52;104.07;;;30.77;;
18188;SDS011;9219;50.396;8.546;2022-12-07T00:39:19;149.67;;;35.97;;
18188;SDS011;9219;50.396;8.546;2022-12-07T00:41:46;133.00;;;33.33;;
18188;SDS011;9219;50.396;8.546;2022-12-07T00:50:20;93.30;;;28.33;;
18188;SDS011;9219;50.396;8.546;2022-12-07T00:52:48;125.07;;;30.43;;
18188;SDS011;9219;50.396;8.546;2022-12-07T00:55:15;96.87;;;29.00;;
18188;SDS011;9219;50.396;8.546;2022-12-07T00:57:42;82.10;;;24.90;;
18188;SDS011;9219;50.396;8.546;2022-12-07T01:00:11;114.00;;;29.77;;
18188;SDS011;9219;50.396;8.546;2022-12-07T01:02:39;73.17;;;25.33;;
18188;SDS011;9219;50.396;8.546;2022-12-07T01:05:07;91.73;;;25.67;;
18188;SDS011;9219;50.396;8.546;2022-12-07T01:07:35;122.77;;;31.00;;
18188;SDS011;9219;50.396;8.546;2022-12-07T01:15:23;89.50;;;25.70;;
18188;SDS011;9219;50.396;8.546;2022-12-07T01:17:51;89.40;;;25.50;;
18188;SDS011;9219;50.396;8.546;2022-12-07T01:20:19;73.70;;;21.83;;
18188;SDS011;9219;50.396;8.546;2022-12-07T01:22:47;77.37;;;24.00;;
18188;SDS011;9219;50.396;8.546;2022-12-07T01:25:15;76.77;;;23.27;;
18188;SDS011;9219;50.396;8.546;2022-12-07T01:27:43;70.17;;;22.57;;
18188;SDS011;9219;50.396;8.546;2022-12-07T01:30:11;83.40;;;25.40;;
18188;SDS011;9219;50.396;8.546;2022-12-07T01:32:40;80.47;;;23.47;;
18188;SDS011;9219;50.396;8.546;2022-12-07T01:40:13;71.80;;;20.80;;
18188;SDS011;9219;50.396;8.546;2022-12-07T01:42:40;85.97;;;21.73;;
18188;SDS011;9219;50.396;8.546;2022-12-07T01:45:25;164.17;;;28.10;;
18188;SDS011;9219;50.396;8.546;2022-12-07T01:48:05;60.83;;;18.70;;
18188;SDS011;9219;50.396;8.546;2022-12-07T01:50:34;70.80;;;19.77;;
18188;SDS011;9219;50.396;8.546;2022-12-07T01:53:06;76.47;;;21.60;;
18188;SDS011;9219;50.396;8.546;2022-12-07T01:55:38;67.50;;;18.57;;
18188;SDS011;9219;50.396;8.546;2022-12-07T01:58:08;62.07;;;19.77;;
18188;SDS011;9219;50.396;8.546;2022-12-07T02:05:42;90.40;;;20.33;;
18188;SDS011;9219;50.396;8.546;2022-12-07T02:08:11;79.17;;;22.90;;
18188;SDS011;9219;50.396;8.546;2022-12-07T02:10:40;102.17;;;22.43;;
18188;SDS011;9219;50.396;8.546;2022-12-07T02:13:08;119.43;;;23.57;;
18188;SDS011;9219;50.396;8.546;2022-12-07T02:15:43;90.20;;;23.73;;
18188;SDS011;9219;50.396;8.546;2022-12-07T02:18:32;97.10;;;21.23;;
18188;SDS011;9219;50.396;8.546;2022-12-07T02:21:11;93.10;;;22.93;;
18188;SDS011;9219;50.396;8.546;2022-12-07T02:23:49;138.53;;;24.60;;
18188;SDS011;9219;50.396;8.546;2022-12-07T02:32:21;536.10;;;60.60;;
18188;SDS011;9219;50.396;8.546;2022-12-07T02:34:53;516.40;;;57.97;;
18188;SDS011;9219;50.396;8.546;2022-12-07T02:37:34;265.57;;;35.10;;
18188;SDS011;9219;50.396;8.546;2022-12-07T02:40:09;120.47;;;24.53;;
18188;SDS011;9219;50.396;8.546;2022-12-07T02:42:42;464.57;;;56.13;;
18188;SDS011;9219;50.396;8.546;2022-12-07T02:45:13;548.07;;;56.47;;
18188;SDS011;9219;50.396;8.546;2022-12-07T02:47:44;555.03;;;55.97;;
18188;SDS011;9219;50.396;8.546;2022-12-07T02:55:36;507.57;;;65.40;;
18188;SDS011;9219;50.396;8.546;2022-12-07T02:58:12;714.70;;;91.13;;
18188;SDS011;9219;50.396;8.546;2022-12-07T03:00:52;849.90;;;93.83;;
18188;SDS011;9219;50.396;8.546;2022-12-07T03:03:32;770.23;;;80.20;;
18188;SDS011;9219;50.396;8.546;2022-12-07T03:06:08;605.67;;;67.00;;
18188;SDS011;9219;50.396;8.546;2022-12-07T03:08:44;555.17;;;70.73;;
18188;SDS011;9219;50.396;8.546;2022-12-07T03:11:21;627.37;;;69.33;;
18188;SDS011;9219;50.396;8.546;2022-12-07T03:18:58;705.63;;;88.13;;
18188;SDS011;9219;50.396;8.546;2022-12-07T03:21:31;866.27;;;85.73;;
18188;SDS011;9219;50.396;8.546;2022-12-07T03:24:02;674.60;;;67.60;;
18188;SDS011;9219;50.396;8.546;2022-12-07T03:26:34;497.93;;;56.30;;
18188;SDS011;9219;50.396;8.546;2022-12-07T03:29:06;762.37;;;77.30;;
18188;SDS011;9219;50.396;8.546;2022-12-07T03:31:39;779.43;;;81.53;;
18188;SDS011;9219;50.396;8.546;2022-12-07T03:34:13;735.50;;;79.17;;
18188;SDS011;9219;50.396;8.546;2022-12-07T03:44:10;868.63;;;105.10;;
18188;SDS011;9219;50.396;8.546;2022-12-07T03:46:40;788.73;;;85.83;;
18188;SDS011;9219;50.396;8.546;2022-12-07T03:49:11;953.37;;;102.23;;
18188;SDS011;9219;50.396;8.546;2022-12-07T03:51:46;747.57;;;78.10;;
18188;SDS011;9219;50.396;8.546;2022-12-07T03:54:21;873.70;;;98.13;;
18188;SDS011;9219;50.396;8.546;2022-12-07T03:56:52;882.67;;;99.53;;
18188;SDS011;9219;50.396;8.546;2022-12-07T03:59:22;997.30;;;118.80;;
18188;SDS011;9219;50.396;8.546;2022-12-07T04:01:51;832.43;;;99.23;;
18188;SDS011;9219;50.396;8.546;2022-12-07T04:09:25;809.27;;;80.90;;
18188;SDS011;9219;50.396;8.546;2022-12-07T04:11:53;827.67;;;101.87;;
18188;SDS011;9219;50.396;8.546;2022-12-07T04:14:20;714.13;;;73.93;;
18188;SDS011;9219;50.396;8.546;2022-12-07T04:16:48;942.43;;;101.40;;
18188;SDS011;9219;50.396;8.546;2022-12-07T04:19:18;981.80;;;101.37;;
18188;SDS011;9219;50.396;8.546;2022-12-07T04:21:47;838.37;;;83.87;;
18188;SDS011;9219;50.396;8.546;2022-12-07T04:24:14;677.90;;;71.60;;
18188;SDS011;9219;50.396;8.546;2022-12-07T04:26:44;719.40;;;80.53;;
18188;SDS011;9219;50.396;8.546;2022-12-07T04:34:18;740.27;;;74.43;;
18188;SDS011;9219;50.396;8.546;2022-12-07T04:36:46;736.80;;;82.67;;
18188;SDS011;9219;50.396;8.546;2022-12-07T04:39:17;1048.53;;;121.43;;
18188;SDS011;9219;50.396;8.546;2022-12-07T04:41:46;920.10;;;98.50;;
18188;SDS011;9219;50.396;8.546;2022-12-07T04:44:14;943.40;;;100.57;;
18188;SDS011;9219;50.396;8.546;2022-12-07T04:46:42;733.53;;;79.17;;
18188;SDS011;9219;50.396;8.546;2022-12-07T04:49:10;600.60;;;67.30;;
18188;SDS011;9219;50.396;8.546;2022-12-07T04:57:30;908.27;;;100.83;;
18188;SDS011;9219;50.396;8.546;2022-12-07T04:59:57;995.17;;;107.47;;
18188;SDS011;9219;50.396;8.546;2022-12-07T05:02:25;831.20;;;91.93;;
18188;SDS011;9219;50.396;8.546;2022-12-07T05:04:53;947.73;;;109.97;;
18188;SDS011;9219;50.396;8.546;2022-12-07T05:07:21;858.43;;;97.47;;
18188;SDS011;9219;50.396;8.546;2022-12-07T05:09:48;783.10;;;85.60;;
18188;SDS011;9219;50.396;8.546;2022-12-07T05:12:16;951.57;;;102.27;;
18188;SDS011;9219;50.396;8.546;2022-12-07T05:22:42;736.97;;;78.87;;
18188;SDS011;9219;50.396;8.546;2022-12-07T05:25:09;1196.03;;;128.83;;
18188;SDS011;9219;50.396;8.546;2022-12-07T05:27:37;959.67;;;100.77;;
18188;SDS011;9219;50.396;8.546;2022-12-07T05:30:05;949.17;;;98.40;;
18188;SDS011;9219;50.396;8.546;2022-12-07T05:32:33;840.20;;;91.80;;
18188;SDS011;9219;50.396;8.546;2022-12-07T05:35:00;863.63;;;98.60;;
18188;SDS011;9219;50.396;8.546;2022-12-07T05:37:27;851.43;;;92.03;;
18188;SDS011;9219;50.396;8.546;2022-12-07T05:45:58;735.90;;;88.03;;
18188;SDS011;9219;50.396;8.546;2022-12-07T05:48:26;912.10;;;101.53;;
18188;SDS011;9219;50.396;8.546;2022-12-07T05:50:53;786.30;;;90.63;;
18188;SDS011;9219;50.396;8.546;2022-12-07T05:53:21;1029.83;;;114.60;;
18188;SDS011;9219;50.396;8.546;2022-12-07T05:55:48;949.47;;;107.13;;
18188;SDS011;9219;50.396;8.546;2022-12-07T05:58:16;818.67;;;85.97;;
18188;SDS011;9219;50.396;8.546;2022-12-07T06:01:11;730.13;;;76.57;;
18188;SDS011;9219;50.396;8.546;2022-12-07T06:03:38;1021.47;;;103.27;;
18188;SDS011;9219;50.396;8.546;2022-12-07T06:11:35;922.17;;;110.67;;
18188;SDS011;9219;50.396;8.546;2022-12-07T06:14:20;803.00;;;97.50;;
18188;SDS011;9219;50.396;8.546;2022-12-07T06:16:47;331.17;;;41.77;;
18188;SDS011;9219;50.396;8.546;2022-12-07T06:19:15;870.87;;;109.83;;
18188;SDS011;9219;50.396;8.546;2022-12-07T06:21:42;844.87;;;105.53;;
18188;SDS011;9219;50.396;8.546;2022-12-07T06:24:10;861.27;;;101.20;;
18188;SDS011;9219;50.396;8.546;2022-12-07T06:26:39;820.97;;;98.20;;
18188;SDS011;9219;50.396;8.546;2022-12-07T06:29:08;1034.07;;;122.47;;
18188;SDS011;9219;50.396;8.546;2022-12-07T06:36:41;583.80;;;76.57;;
18188;SDS011;9219;50.396;8.546;2022-12-07T06:39:09;114.13;;;26.57;;
18188;SDS011;9219;50.396;8.546;2022-12-07T06:41:37;203.17;;;38.13;;
18188;SDS011;9219;50.396;8.546;2022-12-07T06:44:05;144.57;;;30.07;;
18188;SDS011;9219;50.396;8.546;2022-12-07T06:46:34;131.43;;;31.10;;
18188;SDS011;9219;50.396;8.546;2022-12-07T06:49:02;403.77;;;52.73;;
18188;SDS011;9219;50.396;8.546;2022-12-07T06:51:30;524.43;;;63.70;;
18188;SDS011;9219;50.396;8.546;2022-12-07T06:53:58;175.10;;;32.17;;
18188;SDS011;9219;50.396;8.546;2022-12-07T07:04:38;471.73;;;59.17;;
18188;SDS011;9219;50.396;8.546;2022-12-07T07:07:05;334.53;;;45.70;;
18188;SDS011;9219;50.396;8.546;2022-12-07T07:09:33;180.57;;;36.27;;
18188;SDS011;9219;50.396;8.546;2022-12-07T07:12:03;246.43;;;39.37;;
18188;SDS011;9219;50.396;8.546;2022-12-07T07:14:31;115.57;;;29.53;;
18188;SDS011;9219;50.396;8.546;2022-12-07T07:16:59;154.87;;;34.10;;
18188;SDS011;9219;50.396;8.546;2022-12-07T07:19:27;107.07;;;25.77;;
18188;SDS011;9219;50.396;8.546;2022-12-07T07:21:56;94.30;;;26.60;;
18188;SDS011;9219;50.396;8.546;2022-12-07T07:29:53;136.10;;;31.47;;
18188;SDS011;9219;50.396;8.546;2022-12-07T07:32:21;90.30;;;25.67;;
18188;SDS011;9219;50.396;8.546;2022-12-07T07:34:49;116.13;;;29.57;;
18188;SDS011;9219;50.396;8.546;2022-12-07T07:37:16;96.60;;;26.20;;
18188;SDS011;9219;50.396;8.546;2022-12-07T07:39:47;748.03;;;91.10;;
18188;SDS011;9219;50.396;8.546;2022-12-07T07:42:15;734.30;;;98.40;;
18188;SDS011;9219;50.396;8.546;2022-12-07T07:44:42;142.77;;;32.87;;
18188;SDS011;9219;50.396;8.546;2022-12-07T07:47:11;92.40;;;26.80;;
18188;SDS011;9219;50.396;8.546;2022-12-07T07:54:49;94.53;;;26.70;;
18188;SDS011;9219;50.396;8.546;2022-12-07T07:57:20;70.47;;;22.17;;
18188;SDS011;9219;50.396;8.546;2022-12-07T07:59:48;170.03;;;35.07;;
18188;SDS011;9219;50.396;8.546;2022-12-07T08:02:16;446.67;;;59.87;;
18188;SDS011;9219;50.396;8.546;2022-12-07T08:04:45;343.10;;;46.27;;
18188;SDS011;9219;50.396;8.546;2022-12-07T08:07:14;641.67;;;73.73;;
18188;SDS011;9219;50.396;8.546;2022-12-07T08:09:42;103.73;;;26.97;;
18188;SDS011;9219;50.396;8.546;2022-12-07T08:12:10;192.83;;;33.00;;
18188;SDS011;9219;50.396;8.546;2022-12-07T08:19:45;286.20;;;44.13;;
18188;SDS011;9219;50.396;8.546;2022-12-07T08:22:12;184.77;;;36.97;;
18188;SDS011;9219;50.396;8.546;2022-12-07T08:24:40;161.93;;;33.70;;
18188;SDS011;9219;50.396;8.546;2022-12-07T08:27:07;91.10;;;27.70;;
18188;SDS011;9219;50.396;8.546;2022-12-07T08:29:35;89.37;;;26.30;;
18188;SDS011;9219;50.396;8.546;2022-12-07T08:32:03;62.27;;;21.07;;
18188;SDS011;9219;50.396;8.546;2022-12-07T08:34:35;86.60;;;25.93;;
18188;SDS011;9219;50.396;8.546;2022-12-07T08:44:32;54.83;;;17.23;;
18188;SDS011;9219;50.396;8.546;2022-12-07T08:47:00;48.13;;;17.97;;
18188;SDS011;9219;50.396;8.546;2022-12-07T08:49:31;56.20;;;17.57;;
18188;SDS011;9219;50.396;8.546;2022-12-07T08:52:02;58.30;;;20.17;;
18188;SDS011;9219;50.396;8.546;2022-12-07T08:54:32;58.33;;;19.87;;
18188;SDS011;9219;50.396;8.546;2022-12-07T08:57:04;44.30;;;16.93;;
18188;SDS011;9219;50.396;8.546;2022-12-07T08:59:33;55.37;;;19.80;;
18188;SDS011;9219;50.396;8.546;2022-12-07T09:09:30;48.87;;;17.20;;
18188;SDS011;9219;50.396;8.546;2022-12-07T09:11:58;51.73;;;16.90;;
18188;SDS011;9219;50.396;8.546;2022-12-07T09:14:25;37.33;;;16.00;;
18188;SDS011;9219;50.396;8.546;2022-12-07T09:16:52;47.53;;;15.37;;
18188;SDS011;9219;50.396;8.546;2022-12-07T09:19:20;43.30;;;15.33;;
18188;SDS011;9219;50.396;8.546;2022-12-07T09:21:48;35.53;;;13.57;;
18188;SDS011;9219;50.396;8.546;2022-12-07T09:24:17;30.37;;;13.00;;
18188;SDS011;9219;50.396;8.546;2022-12-07T09:31:50;35.93;;;13.20;;
18188;SDS011;9219;50.396;8.546;2022-12-07T09:34:17;25.80;;;10.63;;
18188;SDS011;9219;50.396;8.546;2022-12-07T09:36:45;33.00;;;11.63;;
18188;SDS011;9219;50.396;8.546;2022-12-07T09:39:13;26.27;;;10.73;;
18188;SDS011;9219;50.396;8.546;2022-12-07T09:41:41;16.67;;;8.87;;
18188;SDS011;9219;50.396;8.546;2022-12-07T09:44:12;19.67;;;7.87;;
18188;SDS011;9219;50.396;8.546;2022-12-07T09:46:43;20.63;;;8.40;;
18188;SDS011;9219;50.396;8.546;2022-12-07T09:49:13;14.87;;;7.17;;
18188;SDS011;9219;50.396;8.546;2022-12-07T09:51:44;23.37;;;8.93;;
18188;SDS011;9219;50.396;8.546;2022-12-07T09:54:43;20.30;;;9.33;;
18188;SDS011;9219;50.396;8.546;2022-12-07T09:57:14;20.63;;;8.33;;
18188;SDS011;9219;50.396;8.546;2022-12-07T09:59:42;21.93;;;10.07;;
18188;SDS011;9219;50.396;8.546;2022-12-07T10:02:21;22.87;;;9.13;;
18188;SDS011;9219;50.396;8.546;2022-12-07T10:04:57;19.17;;;9.93;;
18188;SDS011;9219;50.396;8.546;2022-12-07T10:07:26;22.53;;;9.80;;
18188;SDS011;9219;50.396;8.546;2022-12-07T10:09:57;28.50;;;11.53;;
18188;SDS011;9219;50.396;8.546;2022-12-07T10:17:32;20.80;;;10.57;;
18188;SDS011;9219;50.396;8.546;2022-12-07T10:20:14;21.17;;;10.30;;
18188;SDS011;9219;50.396;8.546;2022-12-07T10:22:56;21.30;;;10.77;;
18188;SDS011;9219;50.396;8.546;2022-12-07T10:25:26;25.60;;;9.33;;
18188;SDS011;9219;50.396;8.546;2022-12-07T10:27:58;23.00;;;10.17;;
18188;SDS011;9219;50.396;8.546;2022-12-07T10:30:27;21.80;;;11.63;;
18188;SDS011;9219;50.396;8.546;2022-12-07T10:32:59;22.90;;;11.20;;
18188;SDS011;9219;50.396;8.546;2022-12-07T10:41:18;16.10;;;7.53;;
18188;SDS011;9219;50.396;8.546;2022-12-07T10:43:47;17.50;;;8.60;;
18188;SDS011;9219;50.396;8.546;2022-12-07T10:49:27;13.83;;;7.30;;
18188;SDS011;9219;50.396;8.546;2022-12-07T10:52:26;13.37;;;6.93;;
18188;SDS011;9219;50.396;8.546;2022-12-07T10:55:11;12.80;;;6.87;;
18188;SDS011;9219;50.396;8.546;2022-12-07T10:57:49;13.83;;;6.20;;
18188;SDS011;9219;50.396;8.546;2022-12-07T11:05:30;13.40;;;6.23;;
18188;SDS011;9219;50.396;8.546;2022-12-07T11:08:09;11.93;;;6.60;;
18188;SDS011;9219;50.396;8.546;2022-12-07T11:10:53;14.17;;;6.17;;
18188;SDS011;9219;50.396;8.546;2022-12-07T11:13:27;11.93;;;6.70;;
18188;SDS011;9219;50.396;8.546;2022-12-07T11:16:04;10.93;;;6.50;;
18188;SDS011;9219;50.396;8.546;2022-12-07T11:18:44;12.43;;;6.73;;
18188;SDS011;9219;50.396;8.546;2022-12-07T11:21:23;16.77;;;6.63;;
18188;SDS011;9219;50.396;8.546;2022-12-07T11:32:10;12.20;;;6.63;;
18188;SDS011;9219;50.396;8.546;2022-12-07T11:34:47;11.17;;;6.10;;
18188;SDS011;9219;50.396;8.546;2022-12-07T11:37:23;15.90;;;6.40;;
18188;SDS011;9219;50.396;8.546;2022-12-07T11:40:05;9.63;;;5.90;;
18188;SDS011;9219;50.396;8.546;2022-12-07T11:42:42;13.53;;;5.27;;
18188;SDS011;9219;50.396;8.546;2022-12-07T11:45:20;16.97;;;4.97;;
18188;SDS011;9219;50.396;8.546;2022-12-07T11:47:53;11.97;;;5.23;;
18188;SDS011;9219;50.396;8.546;2022-12-07T11:55:28;18.50;;;6.03;;
18188;SDS011;9219;50.396;8.546;2022-12-07T11:58:04;17.73;;;6.00;;
18188;SDS011;9219;50.396;8.546;2022-12-07T12:00:42;13.77;;;6.43;;
18188;SDS011;9219;50.396;8.546;2022-12-07T12:03:12;13.87;;;6.97;;
18188;SDS011;9219;50.396;8.546;2022-12-07T12:05:58;14.07;;;7.00;;
18188;SDS011;9219;50.396;8.546;2022-12-07T12:08:27;21.23;;;7.17;;
18188;SDS011;9219;50.396;8.546;2022-12-07T12:11:23;16.53;;;5.67;;
18188;SDS011;9219;50.396;8.546;2022-12-07T12:19:21;7.80;;;4.60;;
18188;SDS011;9219;50.396;8.546;2022-12-07T12:21:57;8.80;;;4.33;;
18188;SDS011;9219;50.396;8.546;2022-12-07T12:24:32;9.67;;;5.27;;
18188;SDS011;9219;50.396;8.546;2022-12-07T12:27:02;11.60;;;4.67;;
18188;SDS011;9219;50.396;8.546;2022-12-07T12:29:34;17.00;;;5.80;;
18188;SDS011;9219;50.396;8.546;2022-12-07T12:32:05;10.40;;;5.63;;
18188;SDS011;9219;50.396;8.546;2022-12-07T12:34:57;11.80;;;6.23;;
18188;SDS011;9219;50.396;8.546;2022-12-07T12:42:48;14.73;;;6.70;;
18188;SDS011;9219;50.396;8.546;2022-12-07T12:45:18;11.97;;;6.50;;
18188;SDS011;9219;50.396;8.546;2022-12-07T12:47:57;18.07;;;7.10;;
18188;SDS011;9219;50.396;8.546;2022-12-07T12:50:27;19.50;;;7.80;;
18188;SDS011;9219;50.396;8.546;2022-12-07T12:53:03;13.23;;;6.37;;
18188;SDS011;9219;50.396;8.546;2022-12-07T12:58:43;14.80;;;6.57;;
18188;SDS011;9219;50.396;8.546;2022-12-07T13:08:57;13.00;;;7.20;;
18188;SDS011;9219;50.396;8.546;2022-12-07T13:11:28;17.50;;;7.17;;
18188;SDS011;9219;50.396;8.546;2022-12-07T13:17:00;17.20;;;8.53;;
18188;SDS011;9219;50.396;8.546;2022-12-07T13:25:12;10.97;;;6.57;;
18188;SDS011;9219;50.396;8.546;2022-12-07T13:32:53;16.43;;;5.40;;
18188;SDS011;9219;50.396;8.546;2022-12-07T13:35:33;12.77;;;6.23;;
18188;SDS011;9219;50.396;8.546;2022-12-07T13:38:04;9.17;;;5.53;;
18188;SDS011;9219;50.396;8.546;2022-12-07T13:40:42;15.83;;;5.67;;
18188;SDS011;9219;50.396;8.546;2022-12-07T13:43:25;7.83;;;4.83;;
18188;SDS011;9219;50.396;8.546;2022-12-07T13:45:55;14.30;;;6.10;;
18188;SDS011;9219;50.396;8.546;2022-12-07T13:48:28;11.37;;;5.70;;
18188;SDS011;9219;50.396;8.546;2022-12-07T13:56:03;10.10;;;5.50;;
18188;SDS011;9219;50.396;8.546;2022-12-07T13:58:31;11.00;;;5.67;;
18188;SDS011;9219;50.396;8.546;2022-12-07T14:01:00;10.17;;;5.27;;
18188;SDS011;9219;50.396;8.546;2022-12-07T14:03:29;13.97;;;5.53;;
18188;SDS011;9219;50.396;8.546;2022-12-07T14:06:10;13.87;;;5.70;;
18188;SDS011;9219;50.396;8.546;2022-12-07T14:08:42;12.47;;;6.07;;
18188;SDS011;9219;50.396;8.546;2022-12-07T14:11:13;11.20;;;5.50;;
18188;SDS011;9219;50.396;8.546;2022-12-07T14:17:01;11.13;;;5.73;;
18188;SDS011;9219;50.396;8.546;2022-12-07T14:19:46;18.03;;;5.93;;
18188;SDS011;9219;50.396;8.546;2022-12-07T14:22:27;17.53;;;5.67;;
18188;SDS011;9219;50.396;8.546;2022-12-07T14:25:00;12.13;;;5.67;;
18188;SDS011;9219;50.396;8.546;2022-12-07T14:27:38;12.20;;;5.90;;
18188;SDS011;9219;50.396;8.546;2022-12-07T14:30:15;15.23;;;6.10;;
18188;SDS011;9219;50.396;8.546;2022-12-07T14:32:48;23.00;;;8.97;;
18188;SDS011;9219;50.396;8.546;2022-12-07T14:42:28;12.53;;;6.17;;
18188;SDS011;9219;50.396;8.546;2022-12-07T14:45:00;21.27;;;6.80;;
18188;SDS011;9219;50.396;8.546;2022-12-07T14:47:28;18.50;;;6.80;;
18188;SDS011;9219;50.396;8.546;2022-12-07T14:50:18;14.10;;;6.23;;
18188;SDS011;9219;50.396;8.546;2022-12-07T14:52:53;18.43;;;7.07;;
18188;SDS011;9219;50.396;8.546;2022-12-07T14:55:46;14.63;;;6.77;;
18188;SDS011;9219;50.396;8.546;2022-12-07T14:58:15;16.77;;;6.97;;
18188;SDS011;9219;50.396;8.546;2022-12-07T15:03:23;16.70;;;6.97;;
18188;SDS011;9219;50.396;8.546;2022-12-07T15:05:51;25.70;;;8.37;;
18188;SDS011;9219;50.396;8.546;2022-12-07T15:08:19;15.43;;;7.23;;
18188;SDS011;9219;50.396;8.546;2022-12-07T15:10:47;15.17;;;7.37;;
18188;SDS011;9219;50.396;8.546;2022-12-07T15:13:14;14.53;;;6.27;;
18188;SDS011;9219;50.396;8.546;2022-12-07T15:16:00;22.93;;;7.43;;
18188;SDS011;9219;50.396;8.546;2022-12-07T15:18:29;16.90;;;5.67;;
18188;SDS011;9219;50.396;8.546;2022-12-07T15:20:56;9.30;;;5.60;;
18188;SDS011;9219;50.396;8.546;2022-12-07T15:23:24;12.07;;;5.97;;
18188;SDS011;9219;50.396;8.546;2022-12-07T15:31:22;10.73;;;4.73;;
18188;SDS011;9219;50.396;8.546;2022-12-07T15:34:09;8.97;;;3.33;;
18188;SDS011;9219;50.396;8.546;2022-12-07T15:36:38;7.33;;;3.83;;
18188;SDS011;9219;50.396;8.546;2022-12-07T15:39:06;11.57;;;4.33;;
18188;SDS011;9219;50.396;8.546;2022-12-07T15:41:40;6.30;;;3.07;;
18188;SDS011;9219;50.396;8.546;2022-12-07T15:44:11;5.53;;;2.70;;
18188;SDS011;9219;50.396;8.546;2022-12-07T15:46:58;6.47;;;2.73;;
18188;SDS011;9219;50.396;8.546;2022-12-07T15:52:12;7.33;;;3.60;;
18188;SDS011;9219;50.396;8.546;2022-12-07T15:54:43;6.37;;;3.33;;
18188;SDS011;9219;50.396;8.546;2022-12-07T15:57:10;12.00;;;5.30;;
18188;SDS011;9219;50.396;8.546;2022-12-07T15:59:39;7.00;;;3.43;;
18188;SDS011;9219;50.396;8.546;2022-12-07T16:02:07;6.30;;;3.90;;
18188;SDS011;9219;50.396;8.546;2022-12-07T16:04:36;9.80;;;4.57;;
18188;SDS011;9219;50.396;8.546;2022-12-07T16:07:04;8.03;;;4.00;;
18188;SDS011;9219;50.396;8.546;2022-12-07T16:09:33;8.27;;;4.70;;
18188;SDS011;9219;50.396;8.546;2022-12-07T16:17:56;15.20;;;6.33;;
18188;SDS011;9219;50.396;8.546;2022-12-07T16:20:29;14.83;;;6.13;;
18188;SDS011;9219;50.396;8.546;2022-12-07T16:22:58;23.00;;;8.83;;
18188;SDS011;9219;50.396;8.546;2022-12-07T16:25:30;12.93;;;7.70;;
18188;SDS011;9219;50.396;8.546;2022-12-07T16:27:59;23.23;;;9.27;;
18188;SDS011;9219;50.396;8.546;2022-12-07T16:30:33;16.23;;;7.90;;
18188;SDS011;9219;50.396;8.546;2022-12-07T16:33:05;23.53;;;8.10;;
18188;SDS011;9219;50.396;8.546;2022-12-07T16:41:12;22.10;;;9.10;;
18188;SDS011;9219;50.396;8.546;2022-12-07T16:43:40;18.50;;;8.67;;
18188;SDS011;9219;50.396;8.546;2022-12-07T16:46:08;23.30;;;8.80;;
18188;SDS011;9219;50.396;8.546;2022-12-07T16:48:36;22.13;;;9.63;;
18188;SDS011;9219;50.396;8.546;2022-12-07T16:51:04;22.53;;;8.67;;
18188;SDS011;9219;50.396;8.546;2022-12-07T16:53:35;30.13;;;10.23;;
18188;SDS011;9219;50.396;8.546;2022-12-07T16:56:03;21.47;;;10.50;;
18188;SDS011;9219;50.396;8.546;2022-12-07T16:58:39;27.87;;;10.00;;
18188;SDS011;9219;50.396;8.546;2022-12-07T17:06:13;27.63;;;9.20;;
18188;SDS011;9219;50.396;8.546;2022-12-07T17:08:44;21.73;;;9.20;;
18188;SDS011;9219;50.396;8.546;2022-12-07T17:11:12;20.63;;;9.40;;
18188;SDS011;9219;50.396;8.546;2022-12-07T17:13:45;16.33;;;8.83;;
18188;SDS011;9219;50.396;8.546;2022-12-07T17:16:31;13.43;;;7.73;;
18188;SDS011;9219;50.396;8.546;2022-12-07T17:18:59;19.13;;;7.40;;
18188;SDS011;9219;50.396;8.546;2022-12-07T17:21:32;27.03;;;8.63;;
18188;SDS011;9219;50.396;8.546;2022-12-07T17:30:51;18.10;;;7.90;;
18188;SDS011;9219;50.396;8.546;2022-12-07T17:33:22;15.57;;;7.43;;
18188;SDS011;9219;50.396;8.546;2022-12-07T17:35:52;13.83;;;5.60;;
18188;SDS011;9219;50.396;8.546;2022-12-07T17:38:22;26.77;;;7.77;;
18188;SDS011;9219;50.396;8.546;2022-12-07T17:40:54;20.73;;;7.20;;
18188;SDS011;9219;50.396;8.546;2022-12-07T17:43:23;16.47;;;6.87;;
18188;SDS011;9219;50.396;8.546;2022-12-07T17:45:52;17.20;;;7.03;;
18188;SDS011;9219;50.396;8.546;2022-12-07T17:54:12;10.87;;;6.37;;
18188;SDS011;9219;50.396;8.546;2022-12-07T17:56:43;13.70;;;5.47;;
18188;SDS011;9219;50.396;8.546;2022-12-07T17:59:13;16.17;;;6.10;;
18188;SDS011;9219;50.396;8.546;2022-12-07T18:01:43;22.90;;;6.20;;
18188;SDS011;9219;50.396;8.546;2022-12-07T18:04:13;18.90;;;6.87;;
18188;SDS011;9219;50.396;8.546;2022-12-07T18:06:43;11.83;;;5.20;;
18188;SDS011;9219;50.396;8.546;2022-12-07T18:09:19;12.63;;;6.07;;
18188;SDS011;9219;50.396;8.546;2022-12-07T18:19:10;19.17;;;6.30;;
18188;SDS011;9219;50.396;8.546;2022-12-07T18:21:40;10.30;;;5.53;;
18188;SDS011;9219;50.396;8.546;2022-12-07T18:24:08;15.20;;;6.53;;
18188;SDS011;9219;50.396;8.546;2022-12-07T18:26:39;22.43;;;6.33;;
18188;SDS011;9219;50.396;8.546;2022-12-07T18:29:08;16.03;;;6.20;;
18188;SDS011;9219;50.396;8.546;2022-12-07T18:31:43;11.33;;;5.83;;
18188;SDS011;9219;50.396;8.546;2022-12-07T18:34:17;23.13;;;6.27;;
18188;SDS011;9219;50.396;8.546;2022-12-07T18:40:12;13.60;;;5.37;;
18188;SDS011;9219;50.396;8.546;2022-12-07T18:42:41;12.17;;;5.83;;
18188;SDS011;9219;50.396;8.546;2022-12-07T18:45:13;12.17;;;5.70;;
18188;SDS011;9219;50.396;8.546;2022-12-07T18:47:43;12.07;;;5.50;;
18188;SDS011;9219;50.396;8.546;2022-12-07T18:50:13;9.27;;;5.30;;
18188;SDS011;9219;50.396;8.546;2022-12-07T18:52:43;11.30;;;5.07;;
18188;SDS011;9219;50.396;8.546;2022-12-07T18:55:16;18.37;;;5.93;;
18188;SDS011;9219;50.396;8.546;2022-12-07T18:57:48;13.13;;;5.37;;
18188;SDS011;9219;50.396;8.546;2022-12-07T19:05:28;10.33;;;4.43;;
18188;SDS011;9219;50.396;8.546;2022-12-07T19:07:57;9.33;;;4.77;;
18188;SDS011;9219;50.396;8.546;2022-12-07T19:10:28;16.53;;;5.37;;
18188;SDS011;9219;50.396;8.546;2022-12-07T19:12:58;13.63;;;5.83;;
18188;SDS011;9219;50.396;8.546;2022-12-07T19:15:28;10.00;;;5.33;;
18188;SDS011;9219;50.396;8.546;2022-12-07T19:17:56;7.67;;;3.90;;
18188;SDS011;9219;50.396;8.546;2022-12-07T19:20:25;15.10;;;4.87;;
18188;SDS011;9219;50.396;8.546;2022-12-07T19:27:57;12.20;;;4.63;;
18188;SDS011;9219;50.396;8.546;2022-12-07T19:30:26;12.87;;;4.00;;
18188;SDS011;9219;50.396;8.546;2022-12-07T19:32:54;8.07;;;4.57;;
18188;SDS011;9219;50.396;8.546;2022-12-07T19:35:24;9.43;;;4.00;;
18188;SDS011;9219;50.396;8.546;2022-12-07T19:37:52;10.97;;;4.63;;
18188;SDS011;9219;50.396;8.546;2022-12-07T19:40:23;14.17;;;5.43;;
18188;SDS011;9219;50.396;8.546;2022-12-07T19:42:52;15.83;;;4.43;;